ADDS METAR Data INFO
IDs: Format: Raw Decoded Include TAF

Data at: 0506 UTC 18 Feb 2018

KPMV 180455Z AUTO 13006KT 10SM CLR M01/M04 A3011 RMK AO2 T10111041
KPMV 180435Z AUTO 13005KT 10SM CLR M01/M04 A3013 RMK AO2 T10071039
KPMV 180415Z AUTO 12005KT 10SM CLR 00/M04 A3013 RMK AO2 T00001037
KPMV 180355Z AUTO 10005KT 10SM CLR 00/M04 A3013 RMK AO2 T00001036
KPMV 180335Z AUTO 11005KT 10SM CLR 00/M03 A3013 RMK AO2 T00001035
KPMV 180315Z AUTO 10004KT 10SM CLR 00/M03 A3014 RMK AO2 T00031035
KPMV 180255Z AUTO 06004KT 10SM CLR 01/M03 A3013 RMK AO2 T00121030
KPMV 180235Z AUTO 04005KT 10SM CLR 01/M03 A3014 RMK AO2 T00101030
KPMV 180215Z AUTO 03004KT 10SM CLR 01/M03 A3014 RMK AO2 T00091030
KPMV 180155Z AUTO 03004KT 10SM CLR 02/M03 A3015 RMK AO2 T00171029
KPMV 180135Z AUTO 04006KT 10SM CLR 02/M03 A3015 RMK AO2 T00201030
KPMV 180115Z AUTO 02005KT 10SM CLR 02/M03 A3015 RMK AO2 T00211032
KPMV 180055Z AUTO 00000KT 10SM CLR 02/M04 A3015 RMK AO2 T00221038
KPMV 180035Z AUTO 29003KT 10SM CLR 03/M03 A3014 RMK AO2 T00331035
KPMV 180015Z AUTO 30004KT 10SM CLR 04/M04 A3013 RMK AO2 T00371036
KPMV 172355Z AUTO 29005KT 10SM CLR 05/M04 A3012 RMK AO2 T00451036 10080 20045
KPMV 172335Z AUTO 31006KT 10SM CLR 05/M03 A3010 RMK AO2 T00541035
KPMV 172315Z AUTO 31011G17KT 10SM CLR 06/M04 A3010 RMK AO2 T00641036
KPMV 172255Z AUTO 30010KT 10SM CLR 07/M03 A3010 RMK AO2 T00691035
KPMV 172235Z AUTO 31015G20KT 10SM CLR 08/M04 A3009 RMK AO2 T00751039
KPMV 172215Z AUTO 30013G17KT 10SM CLR 08/M03 A3009 RMK AO2 T00771028
KPMV 172155Z AUTO 28014G19KT 10SM CLR 08/M03 A3009 RMK AO2 T00781028
KPMV 172135Z AUTO 30010KT 10SM CLR 08/M03 A3008 RMK AO2 T00771029
KPMV 172115Z AUTO 28012KT 10SM CLR 08/M03 A3007 RMK AO2 T00781032
KPMV 172055Z AUTO 28012G19KT 10SM CLR 08/M03 A3006 RMK AO2 T00771031
KPMV 172035Z AUTO 29012KT 10SM CLR 08/M03 A3006 RMK AO2 T00771028
KPMV 172015Z AUTO 30011G17KT 10SM CLR 08/M03 A3005 RMK AO2 T00771026
KPMV 171955Z AUTO 28012G16KT 10SM CLR 08/M02 A3004 RMK AO2 T00771020
KPMV 171935Z AUTO 29009G18KT 10SM CLR 07/M01 A3004 RMK AO2 T00711013
KPMV 171915Z AUTO 30009KT 10SM CLR 07/M01 A3002 RMK AO2 T00681011
KPMV 171855Z AUTO 30011KT 10SM CLR 07/M01 A3002 RMK AO2 T00651013
KPMV 171835Z AUTO 30012G17KT 10SM CLR 06/M02 A3002 RMK AO2 T00601017
KPMV 171815Z AUTO 31012G16KT 10SM CLR 06/M02 A3002 RMK AO2 T00601021
KPMV 171755Z AUTO 32012KT 10SM CLR 05/M02 A3001 RMK AO2 T00521024 10052 21034
KPMV 171735Z AUTO 31013KT 10SM CLR 05/M03 A3000 RMK AO2 T00481030
KPMV 171715Z AUTO 33009KT 10SM CLR 04/M04 A2999 RMK AO2 T00391036
KPMV 171655Z AUTO 32013KT 10SM CLR 03/M04 A2998 RMK AO2 T00331040
KPMV 171635Z AUTO 32012G18KT 10SM CLR 03/M04 A2998 RMK AO2 T00271041
KPMV 171615Z AUTO 32011KT 10SM CLR 02/M05 A2997 RMK AO2 T00201046
KPMV 171555Z AUTO 30012KT 10SM CLR 02/M05 A2997 RMK AO2 T00151052
KPMV 171535Z AUTO 30010G15KT 10SM SCT110 01/M06 A2995 RMK AO2 T00101059
KPMV 171515Z AUTO 27015G20KT 10SM SCT050 SCT055 BKN100 01/M06 A2995 RMK AO2 T00051063
KPMV 171455Z AUTO 26013G17KT 10SM SCT050 BKN065 OVC100 00/M06 A2994 RMK AO2 T00031060
KPMV 171435Z AUTO 24010KT 10SM BKN090 BKN110 00/M06 A2993 RMK AO2 T00001062
KPMV 171415Z AUTO 21010KT 10SM OVC100 M01/M07 A2992 RMK AO2 T10061068
KPMV 171355Z AUTO 18006KT 10SM OVC110 M02/M07 A2991 RMK AO2 T10171069
KPMV 171335Z AUTO 17005KT 10SM BKN120 M02/M07 A2990 RMK AO2 T10251075
KPMV 171315Z AUTO 17005KT 10SM SCT120 M03/M08 A2991 RMK AO2 T10271077
KPMV 171255Z AUTO 17004KT 10SM CLR M03/M08 A2991 RMK AO2 T10301077
KPMV 171235Z AUTO 15004KT 10SM CLR M03/M08 A2990 RMK AO2 T10331081
KPMV 171215Z AUTO 14003KT 10SM CLR M03/M08 A2991 RMK AO2 T10291085
KPMV 171155Z AUTO 15005KT 10SM SCT070 M02/M08 A2990 RMK AO2 T10211085 11008 21021
KPMV 171135Z AUTO 17007KT 10SM OVC070 M01/M08 A2990 RMK AO2 T10151085
KPMV 171115Z AUTO 16009KT 10SM OVC070 M01/M09 A2990 RMK AO2 T10111086
KPMV 171055Z AUTO 16010G15KT 10SM BKN080 OVC090 M01/M09 A2991 RMK AO2 T10101089
KPMV 171035Z AUTO 17012G18KT 10SM OVC080 M01/M09 A2992 RMK AO2 T10081092
KPMV 171015Z AUTO 16012KT 10SM OVC080 M01/M09 A2993 RMK AO2 T10081090
KPMV 170955Z AUTO 16010G16KT 10SM OVC090 M01/M09 A2994 RMK AO2 T10101091
KPMV 170935Z AUTO 16011KT 10SM OVC090 M01/M09 A2994 RMK AO2 T10111091
KPMV 170915Z AUTO 16009KT 10SM OVC090 M01/M09 A2997 RMK AO2 T10111092
KPMV 170855Z AUTO 15008KT 10SM OVC100 M02/M09 A2999 RMK AO2 T10201086
KPMV 170835Z AUTO 15006KT 10SM OVC100 M02/M09 A3000 RMK AO2 T10171092
KPMV 170815Z AUTO 16010G14KT 10SM OVC100 M02/M09 A3001 RMK AO2 T10171095
KPMV 170755Z AUTO 16010KT 10SM OVC100 M02/M09 A3001 RMK AO2 T10201095
KPMV 170735Z AUTO 16009KT 10SM OVC100 M02/M10 A3002 RMK AO2 T10201099
KPMV 170715Z AUTO 15008KT 10SM OVC100 M02/M10 A3003 RMK AO2 T10201101
KPMV 170655Z AUTO 15007KT 10SM OVC100 M02/M10 A3005 RMK AO2 T10181105
KPMV 170635Z AUTO 15009KT 10SM OVC100 M02/M10 A3005 RMK AO2 T10191105
KPMV 170615Z AUTO 15007KT 10SM OVC090 M02/M10 A3007 RMK AO2 T10201104
KPMV 170555Z AUTO 16010KT 10SM OVC090 M02/M10 A3008 RMK AO2 T10201102 11018 21037 410011110
KPMV 170535Z AUTO 16009KT 10SM OVC090 M02/M10 A3010 RMK AO2 T10221104
KPMV 170515Z AUTO 16010KT 10SM OVC090 M02/M10 A3011 RMK AO2 T10251103
KPMV 170455Z AUTO 17010KT 10SM BKN090 M03/M10 A3011 RMK AO2 T10301102
KPMV 170435Z AUTO 17010KT 10SM SCT080 M03/M10 A3011 RMK AO2 T10351103
KPMV 170415Z AUTO 16009KT 10SM CLR M03/M10 A3011 RMK AO2 T10331105
KPMV 170355Z AUTO 16008KT 10SM CLR M03/M11 A3013 RMK AO2 T10331106
KPMV 170335Z AUTO 15007KT 10SM CLR M03/M11 A3014 RMK AO2 T10331107
KPMV 170315Z AUTO 15006KT 10SM CLR M03/M11 A3014 RMK AO2 T10351106
KPMV 170255Z AUTO 15006KT 10SM CLR M03/M10 A3015 RMK AO2 T10321105
KPMV 170235Z AUTO 16005KT 10SM CLR M03/M10 A3016 RMK AO2 T10311105
KPMV 170215Z AUTO 15007KT 10SM CLR M03/M10 A3018 RMK AO2 T10351104
KPMV 170155Z AUTO 17004KT 10SM CLR M03/M10 A3020 RMK AO2 T10341101
KPMV 170135Z AUTO 16006KT 10SM CLR M03/M10 A3020 RMK AO2 T10301103
KPMV 170115Z AUTO 15005KT 10SM CLR M03/M10 A3021 RMK AO2 T10301104
KPMV 170055Z AUTO 15006KT 10SM CLR M03/M10 A3021 RMK AO2 T10301103
KPMV 170035Z AUTO 16007KT 10SM CLR M02/M10 A3022 RMK AO2 T10241105
KPMV 170015Z AUTO 16004KT 10SM CLR M02/M10 A3023 RMK AO2 T10201105
KPMV 162355Z AUTO 17007KT 10SM CLR M02/M10 A3024 RMK AO2 T10181100 11001 21061
KPMV 162335Z AUTO 18008KT 10SM CLR M01/M10 A3025 RMK AO2 T10131102
KPMV 162315Z AUTO 18010KT 10SM CLR M01/M11 A3025 RMK AO2 T10101106
KPMV 162255Z AUTO 18010KT 10SM CLR 00/M10 A3026 RMK AO2 T10051104
KPMV 162235Z AUTO 18012KT 10SM CLR 00/M11 A3026 RMK AO2 T10051108
KPMV 162215Z AUTO 19008KT 10SM CLR 00/M11 A3028 RMK AO2 T10021112
KPMV 162155Z AUTO 18006KT 10SM CLR M01/M12 A3028 RMK AO2 T10081116
KPMV 162135Z AUTO 19007KT 10SM CLR M01/M12 A3029 RMK AO2 T10111118
KPMV 162115Z AUTO 20004KT 10SM CLR M01/M12 A3031 RMK AO2 T10061119
KPMV 162055Z AUTO 23004KT 10SM CLR M01/M12 A3033 RMK AO2 T10131124
KPMV 162035Z AUTO 23004KT 10SM CLR M01/M12 A3034 RMK AO2 T10121120
KPMV 162015Z AUTO 19003KT 10SM CLR M02/M12 A3036 RMK AO2 T10161119
KPMV 161955Z AUTO 24005KT 10SM CLR M02/M12 A3037 RMK AO2 T10241121
KPMV 161935Z AUTO 00000KT 10SM CLR M03/M13 A3039 RMK AO2 T10311133
KPMV 161915Z AUTO 23004KT 10SM CLR M03/M13 A3040 RMK AO2 T10351127
KPMV 161855Z AUTO 26004KT 10SM CLR M04/M13 A3042 RMK AO2 T10411133
KPMV 161835Z AUTO 00000KT 10SM CLR M05/M14 A3042 RMK AO2 T10461139
KPMV 161815Z AUTO 25003KT 10SM CLR M05/M14 A3043 RMK AO2 T10521138
KPMV 161755Z AUTO 00000KT 10SM CLR M06/M15 A3045 RMK AO2 T10611154 11060 21110
KPMV 161735Z AUTO 00000KT 10SM CLR M06/M15 A3045 RMK AO2 T10641146
KPMV 161715Z AUTO 27004KT 10SM CLR M07/M15 A3046 RMK AO2 T10711151